map of LOS home
Great Circle Mapper logo
LOS - Airport
Location
City:  Lagos, Nigeria
Name:Murtala Muhammed International Airport
ICAO / IATA:DNMM / LOS

Details
Type:Airport (Aerodrome, Airfield)
Use:Public/Civil, Military, International (customs port of entry)
Latitude:634'39"N (6.577369)
Longitude:319'16"E (3.321156)
Datum:WGS 1984
Elevation:135 ft (41 m)
Runways:2
Longest:12794 × 197 ft (3900 × 60 m), paved

Time
Time Zone:UTC+1
Local Time:

Weather
METAR:DNMM 240500Z 29006KT 260V330 3500 -TSRA BNK008 FEW018CB 24/23 Q1011 TEMPO 5000
TAF:DNMM 231550Z 2318/2424 22005KT 9999 FEW011
TEMPO 2322/2401 TS FEW020CB PROB30 5000 -TSRA BKN010 FEW018CB
BECMG 2401/2403 VRB02KT 7000 NSW FEW009
FM240800 24012KT 9999 BKN014

Related Locations
Nearby:
Farthest:FUN: 12133 mi / 19527 km
Funafuti Atoll [Intl], TV

Find:

   beyond  
but within

Other Information
Maps:
NOTAMs:
Links:
Sources:

  
flag of Nigeria   

Sectional Chart

Flight Planning
at skyvector.com

Satellite Image

Google Maps Satellite View

 

Copyright © 2004-2014 Karl L. Swartz. All rights reserved.
The Great Circle Mapper name and logo are trademarks of the Great Circle Mapper.
All other trademarks mentioned herein belong to their respective owners.
Please see credits for attibutions and further copyright information.

  Follow gcmap on Facebook Follow gcmap on Twitter

hCard Microformat

Geo Microformat